sensor_id;sensor_type;location;lat;lon;timestamp;pressure;altitude;pressure_sealevel;temperature;humidity
14966;BME280;7577;45.226;5.798;2023-04-23T00:02:09;98795.68;;;21.68;46.43
14966;BME280;7577;45.226;5.798;2023-04-23T00:07:21;98809.23;;;21.69;46.53
14966;BME280;7577;45.226;5.798;2023-04-23T00:12:32;98797.06;;;21.68;46.61
14966;BME280;7577;45.226;5.798;2023-04-23T00:15:03;98789.68;;;21.66;46.66
14966;BME280;7577;45.226;5.798;2023-04-23T00:17:34;98795.22;;;21.66;46.70
14966;BME280;7577;45.226;5.798;2023-04-23T00:20:07;98794.73;;;21.64;46.77
14966;BME280;7577;45.226;5.798;2023-04-23T00:22:38;98795.56;;;21.64;46.80
14966;BME280;7577;45.226;5.798;2023-04-23T00:25:09;98799.72;;;21.64;46.85
14966;BME280;7577;45.226;5.798;2023-04-23T00:27:39;98798.33;;;21.64;46.86
14966;BME280;7577;45.226;5.798;2023-04-23T00:30:11;98789.19;;;21.64;46.93
14966;BME280;7577;45.226;5.798;2023-04-23T00:32:41;98790.02;;;21.64;47.00
14966;BME280;7577;45.226;5.798;2023-04-23T00:37:50;98773.61;;;21.65;47.11
14966;BME280;7577;45.226;5.798;2023-04-23T00:40:20;98780.42;;;21.62;47.17
14966;BME280;7577;45.226;5.798;2023-04-23T00:42:52;98775.67;;;21.62;47.18
14966;BME280;7577;45.226;5.798;2023-04-23T00:45:22;98767.95;;;21.62;47.24
14966;BME280;7577;45.226;5.798;2023-04-23T00:47:53;98776.26;;;21.62;47.31
14966;BME280;7577;45.226;5.798;2023-04-23T00:50:25;98772.67;;;21.61;47.39
14966;BME280;7577;45.226;5.798;2023-04-23T00:52:56;98766.67;;;21.59;47.42
14966;BME280;7577;45.226;5.798;2023-04-23T00:55:26;98755.81;;;21.60;47.46
14966;BME280;7577;45.226;5.798;2023-04-23T00:57:56;98761.69;;;21.59;47.46
14966;BME280;7577;45.226;5.798;2023-04-23T01:03:08;98752.21;;;21.60;47.56
14966;BME280;7577;45.226;5.798;2023-04-23T01:05:39;98751.75;;;21.58;47.65
14966;BME280;7577;45.226;5.798;2023-04-23T01:10:53;98741.83;;;21.57;47.74
14966;BME280;7577;45.226;5.798;2023-04-23T01:13:24;98743.22;;;21.57;47.79
14966;BME280;7577;45.226;5.798;2023-04-23T01:18:34;98735.69;;;21.57;47.89
14966;BME280;7577;45.226;5.798;2023-04-23T01:21:05;98735.57;;;21.54;47.91
14966;BME280;7577;45.226;5.798;2023-04-23T01:23:35;98730.82;;;21.54;47.94
14966;BME280;7577;45.226;5.798;2023-04-23T01:26:05;98729.09;;;21.56;47.96
14966;BME280;7577;45.226;5.798;2023-04-23T01:28:36;98721.37;;;21.55;48.10
14966;BME280;7577;45.226;5.798;2023-04-23T01:31:07;98727.26;;;21.54;48.03
14966;BME280;7577;45.226;5.798;2023-04-23T01:33:37;98726.44;;;21.53;48.08
14966;BME280;7577;45.226;5.798;2023-04-23T01:36:08;98727.26;;;21.54;48.17
14966;BME280;7577;45.226;5.798;2023-04-23T01:38:39;98725.88;;;21.54;48.19
14966;BME280;7577;45.226;5.798;2023-04-23T01:41:10;98718.72;;;21.53;48.18
14966;BME280;7577;45.226;5.798;2023-04-23T01:43:41;98714.30;;;21.52;48.24
14966;BME280;7577;45.226;5.798;2023-04-23T01:46:12;98718.00;;;21.50;48.29
14966;BME280;7577;45.226;5.798;2023-04-23T01:48:43;98709.12;;;21.50;48.30
14966;BME280;7577;45.226;5.798;2023-04-23T01:51:13;98710.51;;;21.50;48.34
14966;BME280;7577;45.226;5.798;2023-04-23T01:53:44;98707.73;;;21.50;48.40
14966;BME280;7577;45.226;5.798;2023-04-23T01:56:15;98705.30;;;21.49;48.46
14966;BME280;7577;45.226;5.798;2023-04-23T01:58:47;98707.73;;;21.50;48.46
14966;BME280;7577;45.226;5.798;2023-04-23T02:01:17;98706.91;;;21.50;48.50
14966;BME280;7577;45.226;5.798;2023-04-23T02:03:49;98706.69;;;21.49;48.48
14966;BME280;7577;45.226;5.798;2023-04-23T02:06:19;98710.02;;;21.48;48.57
14966;BME280;7577;45.226;5.798;2023-04-23T02:08:49;98701.70;;;21.48;48.55
14966;BME280;7577;45.226;5.798;2023-04-23T02:13:57;98690.29;;;21.50;48.69
14966;BME280;7577;45.226;5.798;2023-04-23T02:19:06;98697.55;;;21.48;48.71
14966;BME280;7577;45.226;5.798;2023-04-23T02:21:36;98696.50;;;21.47;48.71
14966;BME280;7577;45.226;5.798;2023-04-23T02:24:06;98700.09;;;21.47;48.76
14966;BME280;7577;45.226;5.798;2023-04-23T02:26:36;98704.59;;;21.46;48.79
14966;BME280;7577;45.226;5.798;2023-04-23T02:29:06;98689.91;;;21.45;48.79
14966;BME280;7577;45.226;5.798;2023-04-23T02:31:36;98679.98;;;21.44;48.81
14966;BME280;7577;45.226;5.798;2023-04-23T02:34:06;98682.76;;;21.44;48.88
14966;BME280;7577;45.226;5.798;2023-04-23T02:36:36;98677.22;;;21.44;48.87
14966;BME280;7577;45.226;5.798;2023-04-23T02:39:07;98680.58;;;21.44;48.87
14966;BME280;7577;45.226;5.798;2023-04-23T02:41:37;98680.80;;;21.45;48.89
14966;BME280;7577;45.226;5.798;2023-04-23T02:44:08;98680.32;;;21.43;48.94
14966;BME280;7577;45.226;5.798;2023-04-23T02:46:38;98689.45;;;21.43;49.00
14966;BME280;7577;45.226;5.798;2023-04-23T02:49:08;98689.45;;;21.43;48.95
14966;BME280;7577;45.226;5.798;2023-04-23T02:51:39;98687.02;;;21.42;48.98
14966;BME280;7577;45.226;5.798;2023-04-23T02:56:47;98682.87;;;21.42;48.98
14966;BME280;7577;45.226;5.798;2023-04-23T02:59:17;98694.88;;;21.40;49.08
14966;BME280;7577;45.226;5.798;2023-04-23T03:01:49;98685.19;;;21.40;49.12
14966;BME280;7577;45.226;5.798;2023-04-23T03:04:19;98682.64;;;21.41;49.15
14966;BME280;7577;45.226;5.798;2023-04-23T03:09:27;98684.02;;;21.41;49.14
14966;BME280;7577;45.226;5.798;2023-04-23T03:11:57;98688.85;;;21.38;49.21
14966;BME280;7577;45.226;5.798;2023-04-23T03:14:27;98687.70;;;21.39;49.18
14966;BME280;7577;45.226;5.798;2023-04-23T03:16:57;98685.52;;;21.38;49.26
14966;BME280;7577;45.226;5.798;2023-04-23T03:19:28;98681.14;;;21.37;49.24
14966;BME280;7577;45.226;5.798;2023-04-23T03:24:36;98660.81;;;21.39;49.25
14966;BME280;7577;45.226;5.798;2023-04-23T03:27:06;98665.30;;;21.38;49.24
14966;BME280;7577;45.226;5.798;2023-04-23T03:29:36;98672.23;;;21.38;49.29
14966;BME280;7577;45.226;5.798;2023-04-23T03:32:06;98664.25;;;21.36;49.33
14966;BME280;7577;45.226;5.798;2023-04-23T03:34:36;98656.53;;;21.36;49.39
14966;BME280;7577;45.226;5.798;2023-04-23T03:37:06;98662.86;;;21.36;49.40
14966;BME280;7577;45.226;5.798;2023-04-23T03:39:36;98667.02;;;21.36;49.39
14966;BME280;7577;45.226;5.798;2023-04-23T03:42:06;98666.00;;;21.35;49.41
14966;BME280;7577;45.226;5.798;2023-04-23T03:44:37;98674.32;;;21.35;49.42
14966;BME280;7577;45.226;5.798;2023-04-23T03:47:06;98667.39;;;21.35;49.46
14966;BME280;7577;45.226;5.798;2023-04-23T03:49:37;98665.75;;;21.34;49.46
14966;BME280;7577;45.226;5.798;2023-04-23T03:52:07;98669.11;;;21.33;49.49
14966;BME280;7577;45.226;5.798;2023-04-23T03:54:38;98665.52;;;21.33;49.47
14966;BME280;7577;45.226;5.798;2023-04-23T03:57:09;98649.23;;;21.31;49.52
14966;BME280;7577;45.226;5.798;2023-04-23T03:59:40;98655.59;;;21.32;49.53
14966;BME280;7577;45.226;5.798;2023-04-23T04:04:47;98640.02;;;21.33;49.56
14966;BME280;7577;45.226;5.798;2023-04-23T04:07:19;98649.00;;;21.30;49.58
14966;BME280;7577;45.226;5.798;2023-04-23T04:09:50;98642.91;;;21.31;49.56
14966;BME280;7577;45.226;5.798;2023-04-23T04:12:20;98640.13;;;21.31;49.60
14966;BME280;7577;45.226;5.798;2023-04-23T04:14:50;98634.70;;;21.28;49.65
14966;BME280;7577;45.226;5.798;2023-04-23T04:17:20;98620.25;;;21.29;49.66
14966;BME280;7577;45.226;5.798;2023-04-23T04:19:51;98619.09;;;21.30;49.65
14966;BME280;7577;45.226;5.798;2023-04-23T04:24:58;98619.58;;;21.32;49.75
14966;BME280;7577;45.226;5.798;2023-04-23T04:30:08;98613.22;;;21.31;49.73
14966;BME280;7577;45.226;5.798;2023-04-23T04:35:19;98622.13;;;21.31;49.88
14966;BME280;7577;45.226;5.798;2023-04-23T04:37:50;98621.86;;;21.30;49.80
14966;BME280;7577;45.226;5.798;2023-04-23T04:40:22;98615.77;;;21.30;49.82
14966;BME280;7577;45.226;5.798;2023-04-23T04:42:54;98613.81;;;21.31;49.84
14966;BME280;7577;45.226;5.798;2023-04-23T04:45:25;98618.19;;;21.32;49.79
14966;BME280;7577;45.226;5.798;2023-04-23T04:50:33;98608.38;;;21.34;49.84
14966;BME280;7577;45.226;5.798;2023-04-23T04:53:03;98613.22;;;21.31;49.86
14966;BME280;7577;45.226;5.798;2023-04-23T04:55:33;98608.16;;;21.33;49.90
14966;BME280;7577;45.226;5.798;2023-04-23T05:00:41;98584.95;;;21.38;49.71
14966;BME280;7577;45.226;5.798;2023-04-23T05:03:12;98585.28;;;21.36;49.68
14966;BME280;7577;45.226;5.798;2023-04-23T05:05:43;98587.49;;;21.37;50.00
14966;BME280;7577;45.226;5.798;2023-04-23T05:08:13;98589.33;;;21.39;49.91
14966;BME280;7577;45.226;5.798;2023-04-23T05:10:45;98588.98;;;21.40;49.79
14966;BME280;7577;45.226;5.798;2023-04-23T05:13:15;98587.04;;;21.41;49.76
14966;BME280;7577;45.226;5.798;2023-04-23T05:15:46;98592.36;;;21.40;50.48
14966;BME280;7577;45.226;5.798;2023-04-23T05:18:16;98603.55;;;21.43;50.38
14966;BME280;7577;45.226;5.798;2023-04-23T05:20:46;98598.23;;;21.44;50.42
14966;BME280;7577;45.226;5.798;2023-04-23T05:25:54;98601.16;;;21.48;50.67
14966;BME280;7577;45.226;5.798;2023-04-23T05:31:04;98599.05;;;21.51;50.67
14966;BME280;7577;45.226;5.798;2023-04-23T05:33:35;98604.48;;;21.47;51.01
14966;BME280;7577;45.226;5.798;2023-04-23T05:36:06;98608.30;;;21.49;50.85
14966;BME280;7577;45.226;5.798;2023-04-23T05:38:37;98609.91;;;21.50;50.67
14966;BME280;7577;45.226;5.798;2023-04-23T05:41:07;98613.84;;;21.49;51.37
14966;BME280;7577;45.226;5.798;2023-04-23T05:43:37;98610.73;;;21.50;51.23
14966;BME280;7577;45.226;5.798;2023-04-23T05:46:07;98597.33;;;21.52;51.02
14966;BME280;7577;45.226;5.798;2023-04-23T05:48:37;98597.33;;;21.52;50.94
14966;BME280;7577;45.226;5.798;2023-04-23T05:53:45;98613.95;;;21.58;51.03
14966;BME280;7577;45.226;5.798;2023-04-23T05:56:15;98607.40;;;21.57;50.97
14966;BME280;7577;45.226;5.798;2023-04-23T06:01:23;98590.87;;;21.60;51.03
14966;BME280;7577;45.226;5.798;2023-04-23T06:03:54;98593.99;;;21.59;51.08
14966;BME280;7577;45.226;5.798;2023-04-23T06:06:24;98598.85;;;21.62;51.11
14966;BME280;7577;45.226;5.798;2023-04-23T06:11:34;98592.26;;;21.66;51.36
14966;BME280;7577;45.226;5.798;2023-04-23T06:16:45;98589.66;;;21.70;51.32
14966;BME280;7577;45.226;5.798;2023-04-23T06:19:15;98597.16;;;21.69;51.39
14966;BME280;7577;45.226;5.798;2023-04-23T06:21:46;98607.91;;;21.71;51.48
14966;BME280;7577;45.226;5.798;2023-04-23T06:24:16;98609.97;;;21.74;51.84
14966;BME280;7577;45.226;5.798;2023-04-23T06:26:46;98603.03;;;21.74;52.11
14966;BME280;7577;45.226;5.798;2023-04-23T06:29:16;98602.95;;;21.76;52.20
14966;BME280;7577;45.226;5.798;2023-04-23T06:31:46;98594.86;;;21.77;52.10
14966;BME280;7577;45.226;5.798;2023-04-23T06:34:16;98601.07;;;21.80;52.12
14966;BME280;7577;45.226;5.798;2023-04-23T06:36:46;98597.73;;;21.81;52.54
14966;BME280;7577;45.226;5.798;2023-04-23T06:41:55;98605.13;;;21.89;52.49
14966;BME280;7577;45.226;5.798;2023-04-23T06:44:25;98602.81;;;21.91;52.48
14966;BME280;7577;45.226;5.798;2023-04-23T06:49:33;98602.58;;;21.96;52.94
14966;BME280;7577;45.226;5.798;2023-04-23T06:52:03;98606.98;;;21.97;52.74
14966;BME280;7577;45.226;5.798;2023-04-23T06:54:33;98607.09;;;22.00;52.78
14966;BME280;7577;45.226;5.798;2023-04-23T06:57:03;98597.95;;;22.00;52.88
14966;BME280;7577;45.226;5.798;2023-04-23T06:59:34;98606.75;;;22.02;52.84
14966;BME280;7577;45.226;5.798;2023-04-23T07:02:04;98608.36;;;22.03;52.83
14966;BME280;7577;45.226;5.798;2023-04-23T07:04:34;98614.39;;;22.05;52.97
14966;BME280;7577;45.226;5.798;2023-04-23T07:07:05;98609.52;;;22.08;52.95
14966;BME280;7577;45.226;5.798;2023-04-23T07:09:35;98605.35;;;22.08;52.85
14966;BME280;7577;45.226;5.798;2023-04-23T07:14:43;98605.48;;;22.12;53.07
14966;BME280;7577;45.226;5.798;2023-04-23T07:17:13;98607.44;;;22.11;53.13
14966;BME280;7577;45.226;5.798;2023-04-23T07:22:25;98609.75;;;22.15;52.97
14966;BME280;7577;45.226;5.798;2023-04-23T07:27:33;98603.60;;;22.15;52.79
14966;BME280;7577;45.226;5.798;2023-04-23T07:32:43;98603.52;;;22.18;52.96
14966;BME280;7577;45.226;5.798;2023-04-23T07:35:13;98611.92;;;22.15;52.89
14966;BME280;7577;45.226;5.798;2023-04-23T07:40:22;98596.10;;;22.16;53.48
14966;BME280;7577;45.226;5.798;2023-04-23T07:45:30;98587.22;;;22.17;53.87
14966;BME280;7577;45.226;5.798;2023-04-23T07:48:00;98592.64;;;22.19;53.63
14966;BME280;7577;45.226;5.798;2023-04-23T07:50:31;98593.31;;;22.22;53.49
14966;BME280;7577;45.226;5.798;2023-04-23T07:53:02;98589.63;;;22.24;53.34
14966;BME280;7577;45.226;5.798;2023-04-23T07:55:32;98583.25;;;22.23;53.84
14966;BME280;7577;45.226;5.798;2023-04-23T07:58:02;98569.38;;;22.23;53.77
14966;BME280;7577;45.226;5.798;2023-04-23T08:00:32;98573.67;;;22.27;53.69
14966;BME280;7577;45.226;5.798;2023-04-23T08:03:03;98568.22;;;22.31;53.55
14966;BME280;7577;45.226;5.798;2023-04-23T08:05:33;98563.72;;;22.32;53.61
14966;BME280;7577;45.226;5.798;2023-04-23T08:08:05;98565.77;;;22.35;53.60
14966;BME280;7577;45.226;5.798;2023-04-23T08:10:36;98560.22;;;22.35;53.59
14966;BME280;7577;45.226;5.798;2023-04-23T08:15:44;98560.34;;;22.39;53.53
14966;BME280;7577;45.226;5.798;2023-04-23T08:18:14;98561.61;;;22.41;53.33
14966;BME280;7577;45.226;5.798;2023-04-23T08:23:22;98555.33;;;22.44;53.15
14966;BME280;7577;45.226;5.798;2023-04-23T08:25:52;98553.95;;;22.44;53.13
14966;BME280;7577;45.226;5.798;2023-04-23T08:28:24;98547.16;;;22.48;53.21
14966;BME280;7577;45.226;5.798;2023-04-23T08:30:55;98544.83;;;22.50;52.96
14966;BME280;7577;45.226;5.798;2023-04-23T08:33:25;98551.08;;;22.53;52.90
14966;BME280;7577;45.226;5.798;2023-04-23T08:35:55;98549.12;;;22.53;52.77
14966;BME280;7577;45.226;5.798;2023-04-23T08:38:25;98546.69;;;22.52;52.68
14966;BME280;7577;45.226;5.798;2023-04-23T08:40:57;98543.91;;;22.52;52.63
14966;BME280;7577;45.226;5.798;2023-04-23T08:46:09;98549.56;;;22.55;52.49
14966;BME280;7577;45.226;5.798;2023-04-23T08:51:20;98539.84;;;22.55;52.31
14966;BME280;7577;45.226;5.798;2023-04-23T08:53:51;98539.75;;;22.52;51.99
14966;BME280;7577;45.226;5.798;2023-04-23T08:56:24;98536.72;;;22.51;52.07
14966;BME280;7577;45.226;5.798;2023-04-23T08:58:56;98532.34;;;22.50;52.08
14966;BME280;7577;45.226;5.798;2023-04-23T09:01:28;98522.84;;;22.51;52.01
14966;BME280;7577;45.226;5.798;2023-04-23T09:04:00;98523.89;;;22.52;51.93
14966;BME280;7577;45.226;5.798;2023-04-23T09:06:31;98523.76;;;22.55;51.89
14966;BME280;7577;45.226;5.798;2023-04-23T09:09:02;98510.13;;;22.56;51.82
14966;BME280;7577;45.226;5.798;2023-04-23T09:14:13;98514.04;;;22.61;51.70
14966;BME280;7577;45.226;5.798;2023-04-23T09:16:43;98510.66;;;22.61;51.68
14966;BME280;7577;45.226;5.798;2023-04-23T09:21:52;98501.16;;;22.68;51.55
14966;BME280;7577;45.226;5.798;2023-04-23T09:24:23;98507.53;;;22.69;51.47
14966;BME280;7577;45.226;5.798;2023-04-23T09:26:54;98500.81;;;22.70;51.43
14966;BME280;7577;45.226;5.798;2023-04-23T09:32:06;98497.55;;;22.74;51.33
14966;BME280;7577;45.226;5.798;2023-04-23T09:34:38;98492.92;;;22.72;51.23
14966;BME280;7577;45.226;5.798;2023-04-23T09:37:08;98486.33;;;22.70;51.22
14966;BME280;7577;45.226;5.798;2023-04-23T09:39:39;98480.64;;;22.73;51.10
14966;BME280;7577;45.226;5.798;2023-04-23T09:42:09;98483.67;;;22.74;51.00
14966;BME280;7577;45.226;5.798;2023-04-23T09:44:41;98480.54;;;22.75;50.93
14966;BME280;7577;45.226;5.798;2023-04-23T09:49:50;98473.33;;;22.80;50.77
14966;BME280;7577;45.226;5.798;2023-04-23T09:52:20;98465.36;;;22.79;50.64
14966;BME280;7577;45.226;5.798;2023-04-23T09:54:51;98464.66;;;22.82;50.56
14966;BME280;7577;45.226;5.798;2023-04-23T09:57:23;98460.11;;;22.83;50.46
14966;BME280;7577;45.226;5.798;2023-04-23T09:59:56;98468.22;;;22.82;50.38
14966;BME280;7577;45.226;5.798;2023-04-23T10:02:28;98458.36;;;22.85;50.29
14966;BME280;7577;45.226;5.798;2023-04-23T10:05:00;98454.42;;;22.86;50.22
14966;BME280;7577;45.226;5.798;2023-04-23T10:07:30;98454.88;;;22.88;50.13
14966;BME280;7577;45.226;5.798;2023-04-23T10:10:01;98455.23;;;22.86;50.07
14966;BME280;7577;45.226;5.798;2023-04-23T10:12:32;98451.07;;;22.86;50.00
14966;BME280;7577;45.226;5.798;2023-04-23T10:15:04;98443.20;;;22.88;49.91
14966;BME280;7577;45.226;5.798;2023-04-23T10:17:35;98446.91;;;22.86;49.88
14966;BME280;7577;45.226;5.798;2023-04-23T10:20:08;98433.50;;;22.82;50.02
14966;BME280;7577;45.226;5.798;2023-04-23T10:22:43;98439.05;;;22.82;49.93
14966;BME280;7577;45.226;5.798;2023-04-23T10:27:52;98431.98;;;22.85;49.98
14966;BME280;7577;45.226;5.798;2023-04-23T10:30:25;98431.33;;;22.82;50.11
14966;BME280;7577;45.226;5.798;2023-04-23T10:32:57;98430.86;;;22.80;50.20
14966;BME280;7577;45.226;5.798;2023-04-23T10:35:29;98437.23;;;22.80;50.37
14966;BME280;7577;45.226;5.798;2023-04-23T10:38:00;98426.91;;;22.81;50.30
14966;BME280;7577;45.226;5.798;2023-04-23T10:40:32;98427.95;;;22.82;50.25
14966;BME280;7577;45.226;5.798;2023-04-23T10:43:02;98419.05;;;22.83;50.19
14966;BME280;7577;45.226;5.798;2023-04-23T10:48:10;98406.08;;;22.81;50.55
14966;BME280;7577;45.226;5.798;2023-04-23T10:50:40;98406.82;;;22.78;50.82
14966;BME280;7577;45.226;5.798;2023-04-23T10:53:19;98411.89;;;22.82;50.76
14966;BME280;7577;45.226;5.798;2023-04-23T10:55:49;98412.33;;;22.84;50.68
14966;BME280;7577;45.226;5.798;2023-04-23T11:00:57;98403.58;;;22.91;50.70
14966;BME280;7577;45.226;5.798;2023-04-23T11:03:35;98406.14;;;22.90;50.64
14966;BME280;7577;45.226;5.798;2023-04-23T11:06:05;98404.62;;;22.93;50.60
14966;BME280;7577;45.226;5.798;2023-04-23T11:08:36;98400.45;;;22.93;50.62
14966;BME280;7577;45.226;5.798;2023-04-23T11:11:07;98402.28;;;22.95;50.56
14966;BME280;7577;45.226;5.798;2023-04-23T11:13:41;98398.00;;;22.97;50.46
14966;BME280;7577;45.226;5.798;2023-04-23T11:16:20;98393.37;;;22.95;50.46
14966;BME280;7577;45.226;5.798;2023-04-23T11:18:58;98391.06;;;22.97;50.44
14966;BME280;7577;45.226;5.798;2023-04-23T11:24:34;98387.25;;;22.96;50.39
14966;BME280;7577;45.226;5.798;2023-04-23T11:27:08;98387.25;;;22.96;50.34
14966;BME280;7577;45.226;5.798;2023-04-23T11:29:40;98386.16;;;23.00;50.23
14966;BME280;7577;45.226;5.798;2023-04-23T11:32:12;98373.08;;;23.01;50.15
14966;BME280;7577;45.226;5.798;2023-04-23T11:34:43;98378.03;;;23.01;50.08
14966;BME280;7577;45.226;5.798;2023-04-23T11:39:56;98370.16;;;23.03;49.99
14966;BME280;7577;45.226;5.798;2023-04-23T11:42:26;98364.61;;;23.03;49.95
14966;BME280;7577;45.226;5.798;2023-04-23T11:44:57;98366.81;;;23.04;49.89
14966;BME280;7577;45.226;5.798;2023-04-23T11:47:28;98365.43;;;23.04;49.87
14966;BME280;7577;45.226;5.798;2023-04-23T11:50:01;98366.43;;;23.05;49.91
14966;BME280;7577;45.226;5.798;2023-04-23T11:52:32;98370.84;;;23.06;50.13
14966;BME280;7577;45.226;5.798;2023-04-23T11:55:05;98374.05;;;23.08;50.35
14966;BME280;7577;45.226;5.798;2023-04-23T11:57:36;98366.30;;;23.08;50.56
14966;BME280;7577;45.226;5.798;2023-04-23T12:00:14;98367.78;;;23.11;50.86
14966;BME280;7577;45.226;5.798;2023-04-23T12:02:53;98359.67;;;23.12;51.13
14966;BME280;7577;45.226;5.798;2023-04-23T12:05:27;98366.83;;;23.13;51.07
14966;BME280;7577;45.226;5.798;2023-04-23T12:08:08;98361.87;;;23.13;51.13
14966;BME280;7577;45.226;5.798;2023-04-23T12:10:44;98366.40;;;23.11;51.24
14966;BME280;7577;45.226;5.798;2023-04-23T12:15:54;98344.74;;;23.11;51.54
14966;BME280;7577;45.226;5.798;2023-04-23T12:18:28;98337.94;;;23.08;51.35
14966;BME280;7577;45.226;5.798;2023-04-23T12:21:04;98332.17;;;23.07;51.36
14966;BME280;7577;45.226;5.798;2023-04-23T12:26:14;98332.52;;;23.06;51.45
14966;BME280;7577;45.226;5.798;2023-04-23T12:28:50;98327.67;;;23.03;51.22
14966;BME280;7577;45.226;5.798;2023-04-23T12:31:21;98331.63;;;23.02;51.22
14966;BME280;7577;45.226;5.798;2023-04-23T12:34:00;98327.25;;;23.01;51.08
14966;BME280;7577;45.226;5.798;2023-04-23T12:36:30;98327.60;;;22.99;51.01
14966;BME280;7577;45.226;5.798;2023-04-23T12:39:24;98326.36;;;22.97;51.13
14966;BME280;7577;45.226;5.798;2023-04-23T12:41:57;98319.69;;;22.92;51.22
14966;BME280;7577;45.226;5.798;2023-04-23T12:44:30;98308.94;;;22.90;51.27
14966;BME280;7577;45.226;5.798;2023-04-23T12:49:33;98302.56;;;22.90;51.09
14966;BME280;7577;45.226;5.798;2023-04-23T12:54:42;98289.42;;;22.87;51.03
14966;BME280;7577;45.226;5.798;2023-04-23T12:57:13;98300.67;;;22.84;50.86
14966;BME280;7577;45.226;5.798;2023-04-23T12:59:43;98296.64;;;22.82;51.01
14966;BME280;7577;45.226;5.798;2023-04-23T13:04:51;98284.00;;;22.84;50.87
14966;BME280;7577;45.226;5.798;2023-04-23T13:07:22;98290.84;;;22.81;50.86
14966;BME280;7577;45.226;5.798;2023-04-23T13:12:30;98275.42;;;22.83;50.70
14966;BME280;7577;45.226;5.798;2023-04-23T13:15:00;98277.28;;;22.85;50.53
14966;BME280;7577;45.226;5.798;2023-04-23T13:20:09;98270.19;;;22.88;50.32
14966;BME280;7577;45.226;5.798;2023-04-23T13:25:17;98271.72;;;22.85;50.31
14966;BME280;7577;45.226;5.798;2023-04-23T13:27:47;98275.56;;;22.81;50.46
14966;BME280;7577;45.226;5.798;2023-04-23T13:32:46;98272.30;;;22.85;50.82
14966;BME280;7577;45.226;5.798;2023-04-23T13:37:57;98277.98;;;22.82;50.60
14966;BME280;7577;45.226;5.798;2023-04-23T13:41:20;98283.75;;;22.74;52.35
14966;BME280;7577;45.226;5.798;2023-04-23T13:46:28;98287.03;;;22.79;50.77
14966;BME280;7577;45.226;5.798;2023-04-23T13:48:58;98290.77;;;22.77;50.92
14966;BME280;7577;45.226;5.798;2023-04-23T13:51:29;98280.50;;;22.72;51.06
14966;BME280;7577;45.226;5.798;2023-04-23T13:53:59;98285.00;;;22.76;51.07
14966;BME280;7577;45.226;5.798;2023-04-23T13:56:29;98279.73;;;22.81;51.12
14966;BME280;7577;45.226;5.798;2023-04-23T14:01:37;98266.31;;;22.92;51.00
14966;BME280;7577;45.226;5.798;2023-04-23T14:04:08;98260.77;;;22.92;51.10
14966;BME280;7577;45.226;5.798;2023-04-23T14:06:38;98262.68;;;22.98;50.92
14966;BME280;7577;45.226;5.798;2023-04-23T14:09:09;98260.30;;;23.06;51.03
14966;BME280;7577;45.226;5.798;2023-04-23T14:11:40;98260.75;;;23.17;50.80
14966;BME280;7577;45.226;5.798;2023-04-23T14:14:10;98256.18;;;23.25;50.51
14966;BME280;7577;45.226;5.798;2023-04-23T14:16:40;98256.28;;;23.28;50.18
14966;BME280;7577;45.226;5.798;2023-04-23T14:21:48;98234.47;;;23.30;50.03
14966;BME280;7577;45.226;5.798;2023-04-23T14:26:56;98228.91;;;23.30;49.72
14966;BME280;7577;45.226;5.798;2023-04-23T14:29:33;98235.80;;;23.27;49.60
14966;BME280;7577;45.226;5.798;2023-04-23T14:32:02;98230.66;;;23.29;49.37
14966;BME280;7577;45.226;5.798;2023-04-23T14:37:13;98227.81;;;23.25;48.99
14966;BME280;7577;45.226;5.798;2023-04-23T14:42:24;98218.64;;;23.15;48.80
14966;BME280;7577;45.226;5.798;2023-04-23T14:44:57;98221.26;;;23.08;48.88
14966;BME280;7577;45.226;5.798;2023-04-23T14:50:10;98228.28;;;23.02;49.25
14966;BME280;7577;45.226;5.798;2023-04-23T14:52:40;98227.03;;;23.00;49.22
14966;BME280;7577;45.226;5.798;2023-04-23T14:55:11;98223.37;;;22.96;49.29
14966;BME280;7577;45.226;5.798;2023-04-23T14:57:42;98221.66;;;22.91;49.37
14966;BME280;7577;45.226;5.798;2023-04-23T15:00:13;98213.19;;;22.84;49.45
14966;BME280;7577;45.226;5.798;2023-04-23T15:02:43;98219.46;;;22.81;49.51
14966;BME280;7577;45.226;5.798;2023-04-23T15:05:14;98217.25;;;22.81;49.47
14966;BME280;7577;45.226;5.798;2023-04-23T15:07:44;98229.67;;;22.77;49.55
14966;BME280;7577;45.226;5.798;2023-04-23T15:10:15;98236.76;;;22.75;49.63
14966;BME280;7577;45.226;5.798;2023-04-23T15:15:41;98241.28;;;22.73;49.59
14966;BME280;7577;45.226;5.798;2023-04-23T15:20:47;98270.22;;;22.72;49.54
14966;BME280;7577;45.226;5.798;2023-04-23T15:25:55;98318.13;;;22.69;49.55
14966;BME280;7577;45.226;5.798;2023-04-23T15:28:25;98337.48;;;22.66;49.57
14966;BME280;7577;45.226;5.798;2023-04-23T15:30:55;98347.41;;;22.67;49.51
14966;BME280;7577;45.226;5.798;2023-04-23T15:33:29;98362.69;;;22.67;49.50
14966;BME280;7577;45.226;5.798;2023-04-23T15:35:59;98378.09;;;22.64;49.43
14966;BME280;7577;45.226;5.798;2023-04-23T15:41:07;98445.89;;;22.63;49.56
14966;BME280;7577;45.226;5.798;2023-04-23T15:43:37;98466.02;;;22.60;49.55
14966;BME280;7577;45.226;5.798;2023-04-23T15:46:07;98489.41;;;22.59;49.54
14966;BME280;7577;45.226;5.798;2023-04-23T15:48:37;98510.92;;;22.56;49.61
14966;BME280;7577;45.226;5.798;2023-04-23T15:51:07;98535.46;;;22.54;49.63
14966;BME280;7577;45.226;5.798;2023-04-23T15:53:38;98516.38;;;22.53;49.63
14966;BME280;7577;45.226;5.798;2023-04-23T15:56:08;98533.03;;;22.53;49.63
14966;BME280;7577;45.226;5.798;2023-04-23T15:58:39;98542.88;;;22.50;49.65
14966;BME280;7577;45.226;5.798;2023-04-23T16:01:09;98538.23;;;22.48;49.68
14966;BME280;7577;45.226;5.798;2023-04-23T16:03:39;98538.84;;;22.48;49.70
14966;BME280;7577;45.226;5.798;2023-04-23T16:06:09;98537.80;;;22.46;49.74
14966;BME280;7577;45.226;5.798;2023-04-23T16:08:39;98549.47;;;22.46;49.75
14966;BME280;7577;45.226;5.798;2023-04-23T16:11:09;98554.20;;;22.45;49.74
14966;BME280;7577;45.226;5.798;2023-04-23T16:13:41;98569.21;;;22.44;49.76
14966;BME280;7577;45.226;5.798;2023-04-23T16:16:11;98568.89;;;22.46;49.73
14966;BME280;7577;45.226;5.798;2023-04-23T16:21:18;98591.92;;;22.46;49.73
14966;BME280;7577;45.226;5.798;2023-04-23T16:26:28;98605.07;;;22.43;49.81
14966;BME280;7577;45.226;5.798;2023-04-23T16:28:58;98624.50;;;22.43;49.81